CheckWX is a tool to help pilots better visualize weather data.  It is not intended as a substitute for an official pre-flight weather briefing.

20:09:29 UTC

KJTC METAR
Springerville Municipal Airport
Springerville, Arizona, USA
Current

34 mins ago

KJTC 231935Z AUTO 16015G24KT 10SM SCT048 BKN055 OVC070 10/00 A3012 RMK AO2
Observed
Apr-23 @ 19:35 UTC
Wind
  • 160° at 15 KTS
  • Gusting to 24 KTS
Visibility
10 SM
Flight Rules
VFR
Cloud Levels
  • Scattered at 4,800' AGL
  • Broken at 5,500' AGL
  • Overcast at 7,000' AGL
Temperature
10°C / 50°F
Dewpoint
C / 32°F
Humidity
50%
Altimeter
30.12" Hg
Pressure
1020.02 hPa
Previous

54 mins ago

KJTC 231915Z AUTO 22011KT 10SM VCTS FEW060 SCT070 BKN090 11/M01 A3011 RMK AO2 LTG DSNT ALQDS
Observed
Apr-23 @ 19:15 UTC
Wind
  • 220° at 11 KTS
Visibility
10 SM
Flight Rules
VFR
Conditions
Area Thunderstorm
Cloud Levels
  • Few at 6,000' AGL
  • Scattered at 7,000' AGL
  • Broken at 9,000' AGL
Temperature
11°C / 52°F
Dewpoint
-1°C / 30°F
Humidity
44%
Altimeter
30.11" Hg
Pressure
1019.62 hPa
Previous

1 hour ago

KJTC 231855Z AUTO 18004KT 10SM FEW100 FEW120 12/M04 A3010 RMK AO2 LTG DSNT NE AND E AND SW
Observed
Apr-23 @ 18:55 UTC
Wind
  • 180° at 4 KTS
Visibility
10 SM
Flight Rules
VFR
Cloud Levels
  • Few at 10,000' AGL
  • Few at 12,000' AGL
Temperature
12°C / 54°F
Dewpoint
-4°C / 25°F
Humidity
33%
Altimeter
30.1" Hg
Pressure
1019.32 hPa